sensor_id;sensor_type;location;lat;lon;timestamp;pressure;altitude;pressure_sealevel;temperature
68743;BMP180;55725;42.758;26.702;2023-02-03T00:01:29;99308.00;;;2.30
68743;BMP180;55725;42.758;26.702;2023-02-03T00:03:09;99310.00;;;2.50
68743;BMP180;55725;42.758;26.702;2023-02-03T00:04:49;99299.00;;;2.60
68743;BMP180;55725;42.758;26.702;2023-02-03T00:06:30;99310.00;;;2.40
68743;BMP180;55725;42.758;26.702;2023-02-03T00:08:10;99315.00;;;2.30
68743;BMP180;55725;42.758;26.702;2023-02-03T00:09:51;99313.00;;;2.40
68743;BMP180;55725;42.758;26.702;2023-02-03T00:11:32;99321.00;;;2.50
68743;BMP180;55725;42.758;26.702;2023-02-03T00:13:12;99307.00;;;2.50
68743;BMP180;55725;42.758;26.702;2023-02-03T00:14:53;99311.00;;;2.30
68743;BMP180;55725;42.758;26.702;2023-02-03T00:16:33;99320.00;;;2.20
68743;BMP180;55725;42.758;26.702;2023-02-03T00:18:14;99307.00;;;2.20
68743;BMP180;55725;42.758;26.702;2023-02-03T00:19:54;99314.00;;;2.40
68743;BMP180;55725;42.758;26.702;2023-02-03T00:21:34;99318.00;;;2.20
68743;BMP180;55725;42.758;26.702;2023-02-03T00:23:14;99320.00;;;2.30
68743;BMP180;55725;42.758;26.702;2023-02-03T00:24:55;99313.00;;;2.30
68743;BMP180;55725;42.758;26.702;2023-02-03T00:26:39;99316.00;;;2.30
68743;BMP180;55725;42.758;26.702;2023-02-03T00:28:19;99315.00;;;2.50
68743;BMP180;55725;42.758;26.702;2023-02-03T00:30:00;99313.00;;;2.50
68743;BMP180;55725;42.758;26.702;2023-02-03T00:31:40;99317.00;;;2.50
68743;BMP180;55725;42.758;26.702;2023-02-03T00:33:20;99320.00;;;2.50
68743;BMP180;55725;42.758;26.702;2023-02-03T00:35:01;99321.00;;;2.80
68743;BMP180;55725;42.758;26.702;2023-02-03T00:36:41;99316.00;;;2.90
68743;BMP180;55725;42.758;26.702;2023-02-03T00:38:21;99312.00;;;2.80
68743;BMP180;55725;42.758;26.702;2023-02-03T00:40:02;99321.00;;;2.70
68743;BMP180;55725;42.758;26.702;2023-02-03T00:41:42;99315.00;;;2.70
68743;BMP180;55725;42.758;26.702;2023-02-03T00:43:22;99314.00;;;2.70
68743;BMP180;55725;42.758;26.702;2023-02-03T00:45:03;99318.00;;;2.80
68743;BMP180;55725;42.758;26.702;2023-02-03T00:46:43;99310.00;;;2.60
68743;BMP180;55725;42.758;26.702;2023-02-03T00:48:23;99310.00;;;2.70
68743;BMP180;55725;42.758;26.702;2023-02-03T00:50:04;99309.00;;;2.80
68743;BMP180;55725;42.758;26.702;2023-02-03T00:51:45;99307.00;;;2.70
68743;BMP180;55725;42.758;26.702;2023-02-03T00:53:25;99316.00;;;2.90
68743;BMP180;55725;42.758;26.702;2023-02-03T00:55:05;99310.00;;;2.90
68743;BMP180;55725;42.758;26.702;2023-02-03T00:56:46;99289.00;;;3.10
68743;BMP180;55725;42.758;26.702;2023-02-03T00:58:26;99306.00;;;3.10
68743;BMP180;55725;42.758;26.702;2023-02-03T01:00:07;99311.00;;;3.00
68743;BMP180;55725;42.758;26.702;2023-02-03T01:01:47;99315.00;;;3.00
68743;BMP180;55725;42.758;26.702;2023-02-03T01:03:28;99305.00;;;2.80
68743;BMP180;55725;42.758;26.702;2023-02-03T01:05:09;99308.00;;;2.70
68743;BMP180;55725;42.758;26.702;2023-02-03T01:06:49;99315.00;;;2.90
68743;BMP180;55725;42.758;26.702;2023-02-03T01:08:29;99313.00;;;2.90
68743;BMP180;55725;42.758;26.702;2023-02-03T01:10:11;99317.00;;;3.00
68743;BMP180;55725;42.758;26.702;2023-02-03T01:11:51;99310.00;;;3.10
68743;BMP180;55725;42.758;26.702;2023-02-03T01:13:31;99317.00;;;3.00
68743;BMP180;55725;42.758;26.702;2023-02-03T01:15:12;99316.00;;;2.80
68743;BMP180;55725;42.758;26.702;2023-02-03T01:16:52;99320.00;;;2.90
68743;BMP180;55725;42.758;26.702;2023-02-03T01:18:32;99312.00;;;3.00
68743;BMP180;55725;42.758;26.702;2023-02-03T01:20:13;99305.00;;;2.70
68743;BMP180;55725;42.758;26.702;2023-02-03T01:21:55;99312.00;;;3.10
68743;BMP180;55725;42.758;26.702;2023-02-03T01:23:36;99306.00;;;2.80
68743;BMP180;55725;42.758;26.702;2023-02-03T01:25:16;99305.00;;;3.00
68743;BMP180;55725;42.758;26.702;2023-02-03T01:26:56;99311.00;;;2.80
68743;BMP180;55725;42.758;26.702;2023-02-03T01:28:37;99299.00;;;2.80
68743;BMP180;55725;42.758;26.702;2023-02-03T01:30:17;99314.00;;;2.90
68743;BMP180;55725;42.758;26.702;2023-02-03T01:31:58;99305.00;;;3.00
68743;BMP180;55725;42.758;26.702;2023-02-03T01:33:38;99307.00;;;3.00
68743;BMP180;55725;42.758;26.702;2023-02-03T01:35:25;99313.00;;;2.60
68743;BMP180;55725;42.758;26.702;2023-02-03T01:37:05;99312.00;;;2.50
68743;BMP180;55725;42.758;26.702;2023-02-03T01:38:45;99320.00;;;2.90
68743;BMP180;55725;42.758;26.702;2023-02-03T01:40:26;99320.00;;;2.70
68743;BMP180;55725;42.758;26.702;2023-02-03T01:42:07;99326.00;;;2.70
68743;BMP180;55725;42.758;26.702;2023-02-03T01:43:49;99327.00;;;2.70
68743;BMP180;55725;42.758;26.702;2023-02-03T01:45:29;99332.00;;;2.80
68743;BMP180;55725;42.758;26.702;2023-02-03T01:47:12;99336.00;;;2.60
68743;BMP180;55725;42.758;26.702;2023-02-03T01:50:44;99325.00;;;2.50
68743;BMP180;55725;42.758;26.702;2023-02-03T01:52:24;99332.00;;;2.50
68743;BMP180;55725;42.758;26.702;2023-02-03T01:54:06;99336.00;;;2.30
68743;BMP180;55725;42.758;26.702;2023-02-03T01:55:48;99325.00;;;2.20
68743;BMP180;55725;42.758;26.702;2023-02-03T01:57:31;99326.00;;;2.10
68743;BMP180;55725;42.758;26.702;2023-02-03T01:59:13;99327.00;;;2.60
68743;BMP180;55725;42.758;26.702;2023-02-03T02:00:56;99329.00;;;2.50
68743;BMP180;55725;42.758;26.702;2023-02-03T02:02:37;99315.00;;;2.30
68743;BMP180;55725;42.758;26.702;2023-02-03T02:04:17;99331.00;;;2.40
68743;BMP180;55725;42.758;26.702;2023-02-03T02:06:00;99326.00;;;2.40
68743;BMP180;55725;42.758;26.702;2023-02-03T02:07:42;99321.00;;;2.40
68743;BMP180;55725;42.758;26.702;2023-02-03T02:09:23;99326.00;;;2.50
68743;BMP180;55725;42.758;26.702;2023-02-03T02:11:04;99317.00;;;2.50
68743;BMP180;55725;42.758;26.702;2023-02-03T02:12:46;99321.00;;;2.40
68743;BMP180;55725;42.758;26.702;2023-02-03T02:14:26;99326.00;;;2.10
68743;BMP180;55725;42.758;26.702;2023-02-03T02:17:53;99326.00;;;1.30
68743;BMP180;55725;42.758;26.702;2023-02-03T02:36:07;99352.00;;;1.70
68743;BMP180;55725;42.758;26.702;2023-02-03T02:38:33;99356.00;;;0.80
68743;BMP180;55725;42.758;26.702;2023-02-03T02:41:35;99351.00;;;1.90
68743;BMP180;55725;42.758;26.702;2023-02-03T02:43:22;99361.00;;;1.30
68743;BMP180;55725;42.758;26.702;2023-02-03T02:45:09;99364.00;;;1.40
68743;BMP180;55725;42.758;26.702;2023-02-03T02:46:52;99360.00;;;1.70
68743;BMP180;55725;42.758;26.702;2023-02-03T02:50:18;99360.00;;;2.00
68743;BMP180;55725;42.758;26.702;2023-02-03T02:52:00;99348.00;;;1.70
68743;BMP180;55725;42.758;26.702;2023-02-03T02:53:46;99340.00;;;1.60
68743;BMP180;55725;42.758;26.702;2023-02-03T02:55:29;99342.00;;;2.10
68743;BMP180;55725;42.758;26.702;2023-02-03T02:57:10;99348.00;;;2.00
68743;BMP180;55725;42.758;26.702;2023-02-03T02:58:52;99357.00;;;2.10
68743;BMP180;55725;42.758;26.702;2023-02-03T03:00:34;99348.00;;;2.30
68743;BMP180;55725;42.758;26.702;2023-02-03T03:02:14;99341.00;;;2.30
68743;BMP180;55725;42.758;26.702;2023-02-03T03:03:54;99342.00;;;2.20
68743;BMP180;55725;42.758;26.702;2023-02-03T03:05:35;99339.00;;;2.70
68743;BMP180;55725;42.758;26.702;2023-02-03T03:07:16;99332.00;;;2.60
68743;BMP180;55725;42.758;26.702;2023-02-03T03:08:59;99338.00;;;2.60
68743;BMP180;55725;42.758;26.702;2023-02-03T03:10:42;99331.00;;;2.60
68743;BMP180;55725;42.758;26.702;2023-02-03T03:12:27;99337.00;;;2.60
68743;BMP180;55725;42.758;26.702;2023-02-03T03:14:08;99341.00;;;2.70
68743;BMP180;55725;42.758;26.702;2023-02-03T03:15:49;99346.00;;;2.80
68743;BMP180;55725;42.758;26.702;2023-02-03T03:17:32;99351.00;;;2.70
68743;BMP180;55725;42.758;26.702;2023-02-03T03:19:17;99334.00;;;2.70
68743;BMP180;55725;42.758;26.702;2023-02-03T03:20:59;99345.00;;;2.90
68743;BMP180;55725;42.758;26.702;2023-02-03T03:22:47;99344.00;;;2.70
68743;BMP180;55725;42.758;26.702;2023-02-03T03:24:30;99361.00;;;2.50
68743;BMP180;55725;42.758;26.702;2023-02-03T03:26:13;99360.00;;;2.30
68743;BMP180;55725;42.758;26.702;2023-02-03T03:27:55;99365.00;;;2.40
68743;BMP180;55725;42.758;26.702;2023-02-03T03:29:57;99369.00;;;2.20
68743;BMP180;55725;42.758;26.702;2023-02-03T03:31:39;99366.00;;;2.30
68743;BMP180;55725;42.758;26.702;2023-02-03T03:33:20;99370.00;;;2.30
68743;BMP180;55725;42.758;26.702;2023-02-03T03:35:01;99368.00;;;2.40
68743;BMP180;55725;42.758;26.702;2023-02-03T03:38:41;99378.00;;;2.30
68743;BMP180;55725;42.758;26.702;2023-02-03T03:40:28;99375.00;;;2.10
68743;BMP180;55725;42.758;26.702;2023-02-03T03:42:13;99383.00;;;2.20
68743;BMP180;55725;42.758;26.702;2023-02-03T03:43:58;99370.00;;;2.20
68743;BMP180;55725;42.758;26.702;2023-02-03T03:45:49;99374.00;;;1.70
68743;BMP180;55725;42.758;26.702;2023-02-03T03:49:21;99381.00;;;2.30
68743;BMP180;55725;42.758;26.702;2023-02-03T03:51:08;99372.00;;;2.50
68743;BMP180;55725;42.758;26.702;2023-02-03T03:52:49;99374.00;;;2.20
68743;BMP180;55725;42.758;26.702;2023-02-03T03:54:31;99369.00;;;2.10
68743;BMP180;55725;42.758;26.702;2023-02-03T03:56:14;99364.00;;;2.30
68743;BMP180;55725;42.758;26.702;2023-02-03T03:57:58;99372.00;;;2.20
68743;BMP180;55725;42.758;26.702;2023-02-03T03:59:39;99376.00;;;2.10
68743;BMP180;55725;42.758;26.702;2023-02-03T04:01:20;99378.00;;;2.40
68743;BMP180;55725;42.758;26.702;2023-02-03T04:03:13;99378.00;;;2.30
68743;BMP180;55725;42.758;26.702;2023-02-03T04:04:54;99388.00;;;2.70
68743;BMP180;55725;42.758;26.702;2023-02-03T04:06:37;99388.00;;;2.50
68743;BMP180;55725;42.758;26.702;2023-02-03T04:08:18;99390.00;;;2.60
68743;BMP180;55725;42.758;26.702;2023-02-03T04:09:58;99392.00;;;2.50
68743;BMP180;55725;42.758;26.702;2023-02-03T04:11:38;99390.00;;;2.50
68743;BMP180;55725;42.758;26.702;2023-02-03T04:13:37;99392.00;;;2.60
68743;BMP180;55725;42.758;26.702;2023-02-03T04:15:17;99388.00;;;2.70
68743;BMP180;55725;42.758;26.702;2023-02-03T04:16:58;99387.00;;;2.70
68743;BMP180;55725;42.758;26.702;2023-02-03T04:18:38;99391.00;;;2.70
68743;BMP180;55725;42.758;26.702;2023-02-03T04:20:18;99397.00;;;2.70
68743;BMP180;55725;42.758;26.702;2023-02-03T04:21:58;99393.00;;;2.80
68743;BMP180;55725;42.758;26.702;2023-02-03T04:23:39;99405.00;;;2.60
68743;BMP180;55725;42.758;26.702;2023-02-03T04:25:19;99403.00;;;2.70
68743;BMP180;55725;42.758;26.702;2023-02-03T04:27:00;99412.00;;;2.90
68743;BMP180;55725;42.758;26.702;2023-02-03T04:28:40;99402.00;;;2.70
68743;BMP180;55725;42.758;26.702;2023-02-03T04:30:20;99412.00;;;2.70
68743;BMP180;55725;42.758;26.702;2023-02-03T04:32:01;99409.00;;;2.70
68743;BMP180;55725;42.758;26.702;2023-02-03T04:33:41;99416.00;;;2.70
68743;BMP180;55725;42.758;26.702;2023-02-03T04:35:21;99419.00;;;2.70
68743;BMP180;55725;42.758;26.702;2023-02-03T04:37:02;99418.00;;;2.70
68743;BMP180;55725;42.758;26.702;2023-02-03T04:38:42;99425.00;;;2.80
68743;BMP180;55725;42.758;26.702;2023-02-03T04:40:22;99421.00;;;2.80
68743;BMP180;55725;42.758;26.702;2023-02-03T04:42:03;99419.00;;;3.00
68743;BMP180;55725;42.758;26.702;2023-02-03T04:43:43;99416.00;;;2.80
68743;BMP180;55725;42.758;26.702;2023-02-03T04:45:23;99418.00;;;2.80
68743;BMP180;55725;42.758;26.702;2023-02-03T04:47:03;99406.00;;;2.80
68743;BMP180;55725;42.758;26.702;2023-02-03T04:48:44;99419.00;;;2.80
68743;BMP180;55725;42.758;26.702;2023-02-03T04:50:24;99415.00;;;2.60
68743;BMP180;55725;42.758;26.702;2023-02-03T04:52:04;99412.00;;;2.70
68743;BMP180;55725;42.758;26.702;2023-02-03T04:53:45;99417.00;;;2.70
68743;BMP180;55725;42.758;26.702;2023-02-03T04:55:28;99422.00;;;2.70
68743;BMP180;55725;42.758;26.702;2023-02-03T04:57:08;99427.00;;;2.90
68743;BMP180;55725;42.758;26.702;2023-02-03T04:58:48;99431.00;;;2.70
68743;BMP180;55725;42.758;26.702;2023-02-03T05:00:29;99426.00;;;2.60
68743;BMP180;55725;42.758;26.702;2023-02-03T05:02:09;99432.00;;;2.70
68743;BMP180;55725;42.758;26.702;2023-02-03T05:03:49;99439.00;;;2.90
68743;BMP180;55725;42.758;26.702;2023-02-03T05:05:30;99442.00;;;2.80
68743;BMP180;55725;42.758;26.702;2023-02-03T05:07:10;99449.00;;;2.80
68743;BMP180;55725;42.758;26.702;2023-02-03T05:08:51;99453.00;;;2.90
68743;BMP180;55725;42.758;26.702;2023-02-03T05:10:31;99462.00;;;3.00
68743;BMP180;55725;42.758;26.702;2023-02-03T05:12:11;99457.00;;;2.90
68743;BMP180;55725;42.758;26.702;2023-02-03T05:13:52;99462.00;;;2.80
68743;BMP180;55725;42.758;26.702;2023-02-03T05:15:32;99457.00;;;3.00
68743;BMP180;55725;42.758;26.702;2023-02-03T05:17:13;99448.00;;;3.00
68743;BMP180;55725;42.758;26.702;2023-02-03T05:18:53;99457.00;;;2.90
68743;BMP180;55725;42.758;26.702;2023-02-03T05:20:33;99449.00;;;2.90
68743;BMP180;55725;42.758;26.702;2023-02-03T05:22:14;99451.00;;;2.70
68743;BMP180;55725;42.758;26.702;2023-02-03T05:23:54;99443.00;;;3.10
68743;BMP180;55725;42.758;26.702;2023-02-03T05:25:34;99462.00;;;3.00
68743;BMP180;55725;42.758;26.702;2023-02-03T05:27:15;99459.00;;;3.10
68743;BMP180;55725;42.758;26.702;2023-02-03T05:28:55;99457.00;;;3.20
68743;BMP180;55725;42.758;26.702;2023-02-03T05:30:35;99466.00;;;3.30
68743;BMP180;55725;42.758;26.702;2023-02-03T05:32:15;99467.00;;;3.10
68743;BMP180;55725;42.758;26.702;2023-02-03T05:33:56;99478.00;;;3.20
68743;BMP180;55725;42.758;26.702;2023-02-03T05:35:36;99475.00;;;3.00
68743;BMP180;55725;42.758;26.702;2023-02-03T05:37:16;99472.00;;;3.00
68743;BMP180;55725;42.758;26.702;2023-02-03T05:38:57;99476.00;;;2.90
68743;BMP180;55725;42.758;26.702;2023-02-03T05:40:37;99483.00;;;3.10
68743;BMP180;55725;42.758;26.702;2023-02-03T05:42:36;99486.00;;;3.10
68743;BMP180;55725;42.758;26.702;2023-02-03T05:44:20;99482.00;;;3.10
68743;BMP180;55725;42.758;26.702;2023-02-03T05:46:01;99486.00;;;3.10
68743;BMP180;55725;42.758;26.702;2023-02-03T05:47:41;99490.00;;;3.20
68743;BMP180;55725;42.758;26.702;2023-02-03T05:49:22;99490.00;;;3.20
68743;BMP180;55725;42.758;26.702;2023-02-03T05:51:02;99498.00;;;3.20
68743;BMP180;55725;42.758;26.702;2023-02-03T05:52:43;99480.00;;;3.30
68743;BMP180;55725;42.758;26.702;2023-02-03T05:54:23;99487.00;;;3.40
68743;BMP180;55725;42.758;26.702;2023-02-03T05:56:03;99468.00;;;3.50
68743;BMP180;55725;42.758;26.702;2023-02-03T05:57:44;99480.00;;;3.60
68743;BMP180;55725;42.758;26.702;2023-02-03T05:59:24;99480.00;;;3.60
68743;BMP180;55725;42.758;26.702;2023-02-03T06:01:04;99494.00;;;3.70
68743;BMP180;55725;42.758;26.702;2023-02-03T06:02:45;99488.00;;;3.60
68743;BMP180;55725;42.758;26.702;2023-02-03T06:04:25;99488.00;;;3.50
68743;BMP180;55725;42.758;26.702;2023-02-03T06:06:05;99472.00;;;3.60
68743;BMP180;55725;42.758;26.702;2023-02-03T06:07:46;99464.00;;;3.60
68743;BMP180;55725;42.758;26.702;2023-02-03T06:09:26;99447.00;;;3.80
68743;BMP180;55725;42.758;26.702;2023-02-03T06:11:06;99451.00;;;3.80
68743;BMP180;55725;42.758;26.702;2023-02-03T06:12:47;99464.00;;;3.90
68743;BMP180;55725;42.758;26.702;2023-02-03T06:14:27;99465.00;;;3.80
68743;BMP180;55725;42.758;26.702;2023-02-03T06:16:08;99481.00;;;3.80
68743;BMP180;55725;42.758;26.702;2023-02-03T06:17:48;99454.00;;;3.90
68743;BMP180;55725;42.758;26.702;2023-02-03T06:19:28;99456.00;;;4.00
68743;BMP180;55725;42.758;26.702;2023-02-03T06:21:09;99461.00;;;4.00
68743;BMP180;55725;42.758;26.702;2023-02-03T06:22:49;99454.00;;;4.10
68743;BMP180;55725;42.758;26.702;2023-02-03T06:24:29;99479.00;;;4.00
68743;BMP180;55725;42.758;26.702;2023-02-03T06:26:09;99516.00;;;3.80
68743;BMP180;55725;42.758;26.702;2023-02-03T06:27:50;99503.00;;;3.70
68743;BMP180;55725;42.758;26.702;2023-02-03T06:29:30;99518.00;;;3.70
68743;BMP180;55725;42.758;26.702;2023-02-03T06:31:11;99509.00;;;3.60
68743;BMP180;55725;42.758;26.702;2023-02-03T06:32:51;99514.00;;;3.70
68743;BMP180;55725;42.758;26.702;2023-02-03T06:34:31;99493.00;;;3.60
68743;BMP180;55725;42.758;26.702;2023-02-03T06:36:12;99461.00;;;3.90
68743;BMP180;55725;42.758;26.702;2023-02-03T06:37:52;99450.00;;;4.20
68743;BMP180;55725;42.758;26.702;2023-02-03T06:39:32;99441.00;;;4.30
68743;BMP180;55725;42.758;26.702;2023-02-03T06:41:13;99450.00;;;4.40
68743;BMP180;55725;42.758;26.702;2023-02-03T06:42:53;99445.00;;;4.50
68743;BMP180;55725;42.758;26.702;2023-02-03T06:44:33;99441.00;;;4.60
68743;BMP180;55725;42.758;26.702;2023-02-03T06:46:13;99447.00;;;4.60
68743;BMP180;55725;42.758;26.702;2023-02-03T06:47:54;99452.00;;;4.80
68743;BMP180;55725;42.758;26.702;2023-02-03T06:49:34;99456.00;;;4.80
68743;BMP180;55725;42.758;26.702;2023-02-03T06:51:14;99477.00;;;4.70
68743;BMP180;55725;42.758;26.702;2023-02-03T06:52:55;99448.00;;;4.70
68743;BMP180;55725;42.758;26.702;2023-02-03T06:54:35;99457.00;;;4.80
68743;BMP180;55725;42.758;26.702;2023-02-03T06:56:15;99443.00;;;4.50
68743;BMP180;55725;42.758;26.702;2023-02-03T06:57:55;99443.00;;;4.80
68743;BMP180;55725;42.758;26.702;2023-02-03T06:59:36;99451.00;;;4.80
68743;BMP180;55725;42.758;26.702;2023-02-03T07:01:16;99508.00;;;4.80
68743;BMP180;55725;42.758;26.702;2023-02-03T07:02:57;99460.00;;;4.80
68743;BMP180;55725;42.758;26.702;2023-02-03T07:04:38;99461.00;;;5.10
68743;BMP180;55725;42.758;26.702;2023-02-03T07:06:19;99484.00;;;4.50
68743;BMP180;55725;42.758;26.702;2023-02-03T07:07:59;99544.00;;;4.40
68743;BMP180;55725;42.758;26.702;2023-02-03T07:09:39;99497.00;;;4.20
68743;BMP180;55725;42.758;26.702;2023-02-03T07:11:20;99478.00;;;4.30
68743;BMP180;55725;42.758;26.702;2023-02-03T07:13:01;99527.00;;;4.20
68743;BMP180;55725;42.758;26.702;2023-02-03T07:14:41;99448.00;;;4.60
68743;BMP180;55725;42.758;26.702;2023-02-03T07:16:21;99452.00;;;5.10
68743;BMP180;55725;42.758;26.702;2023-02-03T07:18:02;99462.00;;;5.10
68743;BMP180;55725;42.758;26.702;2023-02-03T07:19:42;99451.00;;;5.40
68743;BMP180;55725;42.758;26.702;2023-02-03T07:21:23;99443.00;;;5.70
68743;BMP180;55725;42.758;26.702;2023-02-03T07:23:03;99449.00;;;5.90
68743;BMP180;55725;42.758;26.702;2023-02-03T07:24:43;99452.00;;;5.50
68743;BMP180;55725;42.758;26.702;2023-02-03T07:26:23;99496.00;;;5.50
68743;BMP180;55725;42.758;26.702;2023-02-03T07:28:05;99438.00;;;5.40
68743;BMP180;55725;42.758;26.702;2023-02-03T07:29:45;99467.00;;;5.40
68743;BMP180;55725;42.758;26.702;2023-02-03T07:31:26;99450.00;;;5.50
68743;BMP180;55725;42.758;26.702;2023-02-03T07:33:06;99447.00;;;5.70
68743;BMP180;55725;42.758;26.702;2023-02-03T07:34:47;99434.00;;;6.00
68743;BMP180;55725;42.758;26.702;2023-02-03T07:36:27;99452.00;;;5.90
68743;BMP180;55725;42.758;26.702;2023-02-03T07:38:07;99449.00;;;5.90
68743;BMP180;55725;42.758;26.702;2023-02-03T07:39:48;99445.00;;;5.70
68743;BMP180;55725;42.758;26.702;2023-02-03T07:41:28;99552.00;;;5.60
68743;BMP180;55725;42.758;26.702;2023-02-03T07:43:09;99571.00;;;5.20
68743;BMP180;55725;42.758;26.702;2023-02-03T07:44:49;99548.00;;;5.00
68743;BMP180;55725;42.758;26.702;2023-02-03T07:46:29;99556.00;;;5.10
68743;BMP180;55725;42.758;26.702;2023-02-03T07:48:10;99462.00;;;5.70
68743;BMP180;55725;42.758;26.702;2023-02-03T07:49:50;99573.00;;;5.30
68743;BMP180;55725;42.758;26.702;2023-02-03T07:51:31;99455.00;;;5.10
68743;BMP180;55725;42.758;26.702;2023-02-03T07:53:11;99460.00;;;5.50
68743;BMP180;55725;42.758;26.702;2023-02-03T07:54:51;99462.00;;;5.60
68743;BMP180;55725;42.758;26.702;2023-02-03T07:56:32;99569.00;;;5.20
68743;BMP180;55725;42.758;26.702;2023-02-03T07:58:12;99571.00;;;4.90
68743;BMP180;55725;42.758;26.702;2023-02-03T07:59:52;99487.00;;;5.00
68743;BMP180;55725;42.758;26.702;2023-02-03T08:01:33;99577.00;;;4.70
68743;BMP180;55725;42.758;26.702;2023-02-03T08:03:13;99573.00;;;5.10
68743;BMP180;55725;42.758;26.702;2023-02-03T08:04:53;99566.00;;;5.00
68743;BMP180;55725;42.758;26.702;2023-02-03T08:06:36;99572.00;;;5.50
68743;BMP180;55725;42.758;26.702;2023-02-03T08:08:17;99538.00;;;5.40
68743;BMP180;55725;42.758;26.702;2023-02-03T08:09:57;99573.00;;;5.40
68743;BMP180;55725;42.758;26.702;2023-02-03T08:11:37;99521.00;;;5.00
68743;BMP180;55725;42.758;26.702;2023-02-03T08:13:18;99593.00;;;5.20
68743;BMP180;55725;42.758;26.702;2023-02-03T08:14:58;99550.00;;;4.80
68743;BMP180;55725;42.758;26.702;2023-02-03T08:16:38;99585.00;;;4.80
68743;BMP180;55725;42.758;26.702;2023-02-03T08:18:19;99589.00;;;5.10
68743;BMP180;55725;42.758;26.702;2023-02-03T08:19:59;99585.00;;;4.70
68743;BMP180;55725;42.758;26.702;2023-02-03T08:21:39;99553.00;;;5.70
68743;BMP180;55725;42.758;26.702;2023-02-03T08:23:19;99557.00;;;4.90
68743;BMP180;55725;42.758;26.702;2023-02-03T08:25:00;99576.00;;;5.70
68743;BMP180;55725;42.758;26.702;2023-02-03T08:26:40;99595.00;;;4.90
68743;BMP180;55725;42.758;26.702;2023-02-03T08:28:20;99532.00;;;5.30
68743;BMP180;55725;42.758;26.702;2023-02-03T08:30:01;99469.00;;;5.40
68743;BMP180;55725;42.758;26.702;2023-02-03T08:31:41;99468.00;;;6.00
68743;BMP180;55725;42.758;26.702;2023-02-03T08:33:22;99452.00;;;6.70
68743;BMP180;55725;42.758;26.702;2023-02-03T08:35:02;99465.00;;;7.00
68743;BMP180;55725;42.758;26.702;2023-02-03T08:36:43;99496.00;;;6.90
68743;BMP180;55725;42.758;26.702;2023-02-03T08:38:23;99480.00;;;6.30
68743;BMP180;55725;42.758;26.702;2023-02-03T08:40:04;99552.00;;;6.00
68743;BMP180;55725;42.758;26.702;2023-02-03T08:41:44;99451.00;;;5.90
68743;BMP180;55725;42.758;26.702;2023-02-03T08:43:24;99497.00;;;6.80
68743;BMP180;55725;42.758;26.702;2023-02-03T08:45:05;99502.00;;;5.80
68743;BMP180;55725;42.758;26.702;2023-02-03T08:46:49;99514.00;;;6.20
68743;BMP180;55725;42.758;26.702;2023-02-03T08:48:30;99471.00;;;6.70
68743;BMP180;55725;42.758;26.702;2023-02-03T08:50:10;99468.00;;;7.00
68743;BMP180;55725;42.758;26.702;2023-02-03T08:51:50;99466.00;;;6.70
68743;BMP180;55725;42.758;26.702;2023-02-03T08:53:31;99466.00;;;7.30
68743;BMP180;55725;42.758;26.702;2023-02-03T08:55:11;99483.00;;;7.00
68743;BMP180;55725;42.758;26.702;2023-02-03T08:56:52;99537.00;;;6.90
68743;BMP180;55725;42.758;26.702;2023-02-03T08:58:32;99473.00;;;6.60
68743;BMP180;55725;42.758;26.702;2023-02-03T09:00:12;99590.00;;;6.60
68743;BMP180;55725;42.758;26.702;2023-02-03T09:01:53;99594.00;;;5.90
68743;BMP180;55725;42.758;26.702;2023-02-03T09:03:34;99610.00;;;5.70
68743;BMP180;55725;42.758;26.702;2023-02-03T09:05:14;99612.00;;;5.70
68743;BMP180;55725;42.758;26.702;2023-02-03T09:06:56;99622.00;;;5.20
68743;BMP180;55725;42.758;26.702;2023-02-03T09:08:37;99622.00;;;5.20
68743;BMP180;55725;42.758;26.702;2023-02-03T09:10:17;99632.00;;;5.20
68743;BMP180;55725;42.758;26.702;2023-02-03T09:11:57;99626.00;;;5.10
68743;BMP180;55725;42.758;26.702;2023-02-03T09:13:41;99620.00;;;5.10
68743;BMP180;55725;42.758;26.702;2023-02-03T09:15:24;99623.00;;;5.20
68743;BMP180;55725;42.758;26.702;2023-02-03T09:17:06;99627.00;;;5.20
68743;BMP180;55725;42.758;26.702;2023-02-03T09:18:49;99627.00;;;5.10
68743;BMP180;55725;42.758;26.702;2023-02-03T09:20:29;99618.00;;;5.10
68743;BMP180;55725;42.758;26.702;2023-02-03T09:22:09;99614.00;;;5.10
68743;BMP180;55725;42.758;26.702;2023-02-03T09:23:50;99602.00;;;5.20
68743;BMP180;55725;42.758;26.702;2023-02-03T09:25:30;99607.00;;;5.20
68743;BMP180;55725;42.758;26.702;2023-02-03T09:27:11;99606.00;;;5.30
68743;BMP180;55725;42.758;26.702;2023-02-03T09:28:52;99554.00;;;5.30
68743;BMP180;55725;42.758;26.702;2023-02-03T09:30:32;99588.00;;;5.50
68743;BMP180;55725;42.758;26.702;2023-02-03T09:32:12;99580.00;;;5.70
68743;BMP180;55725;42.758;26.702;2023-02-03T09:33:53;99580.00;;;5.90
68743;BMP180;55725;42.758;26.702;2023-02-03T09:35:33;99585.00;;;5.70
68743;BMP180;55725;42.758;26.702;2023-02-03T09:37:13;99572.00;;;5.70
68743;BMP180;55725;42.758;26.702;2023-02-03T09:38:53;99579.00;;;6.30
68743;BMP180;55725;42.758;26.702;2023-02-03T09:40:35;99542.00;;;6.00
68743;BMP180;55725;42.758;26.702;2023-02-03T09:42:27;99576.00;;;6.20
68743;BMP180;55725;42.758;26.702;2023-02-03T09:44:26;99563.00;;;6.20
68743;BMP180;55725;42.758;26.702;2023-02-03T09:47:58;99582.00;;;6.60
68743;BMP180;55725;42.758;26.702;2023-02-03T09:49:41;99556.00;;;6.00
68743;BMP180;55725;42.758;26.702;2023-02-03T09:51:27;99503.00;;;7.30
68743;BMP180;55725;42.758;26.702;2023-02-03T09:53:17;99544.00;;;7.30
68743;BMP180;55725;42.758;26.702;2023-02-03T09:56:52;99468.00;;;7.90
68743;BMP180;55725;42.758;26.702;2023-02-03T09:58:34;99477.00;;;7.60
68743;BMP180;55725;42.758;26.702;2023-02-03T10:04:02;99566.00;;;6.60
68743;BMP180;55725;42.758;26.702;2023-02-03T10:11:00;99574.00;;;6.30
68743;BMP180;55725;42.758;26.702;2023-02-03T10:18:23;99606.00;;;5.80
68743;BMP180;55725;42.758;26.702;2023-02-03T10:21:57;99613.00;;;5.80
68743;BMP180;55725;42.758;26.702;2023-02-03T10:23:39;99608.00;;;5.70
68743;BMP180;55725;42.758;26.702;2023-02-03T10:25:24;99612.00;;;5.60
68743;BMP180;55725;42.758;26.702;2023-02-03T10:27:17;99622.00;;;5.80
68743;BMP180;55725;42.758;26.702;2023-02-03T10:29:02;99608.00;;;5.60
68743;BMP180;55725;42.758;26.702;2023-02-03T10:30:47;99617.00;;;5.70
68743;BMP180;55725;42.758;26.702;2023-02-03T10:32:28;99615.00;;;5.50